sensor_id;sensor_type;location;lat;lon;timestamp;pressure;altitude;pressure_sealevel;temperature
49154;BMP280;49455;52.252;9.124;2023-03-24T00:03:25;98181.63;;;12.01
49154;BMP280;49455;52.252;9.124;2023-03-24T00:08:27;98175.59;;;11.91
49154;BMP280;49455;52.252;9.124;2023-03-24T00:13:29;98171.31;;;11.78
49154;BMP280;49455;52.252;9.124;2023-03-24T00:18:30;98159.25;;;11.73
49154;BMP280;49455;52.252;9.124;2023-03-24T00:23:31;98147.22;;;11.62
49154;BMP280;49455;52.252;9.124;2023-03-24T00:28:33;98141.16;;;11.57
49154;BMP280;49455;52.252;9.124;2023-03-24T00:33:34;98142.91;;;11.45
49154;BMP280;49455;52.252;9.124;2023-03-24T00:38:35;98134.25;;;11.38
49154;BMP280;49455;52.252;9.124;2023-03-24T00:43:36;98129.94;;;11.31
49154;BMP280;49455;52.252;9.124;2023-03-24T00:48:37;98117.03;;;11.22
49154;BMP280;49455;52.252;9.124;2023-03-24T00:53:37;98107.53;;;11.23
49154;BMP280;49455;52.252;9.124;2023-03-24T00:58:38;98098.91;;;11.15
49154;BMP280;49455;52.252;9.124;2023-03-24T01:03:39;98090.31;;;11.10
49154;BMP280;49455;52.252;9.124;2023-03-24T01:08:39;98085.16;;;11.06
49154;BMP280;49455;52.252;9.124;2023-03-24T01:13:40;98086.88;;;10.98
49154;BMP280;49455;52.252;9.124;2023-03-24T01:18:40;98072.25;;;11.00
49154;BMP280;49455;52.252;9.124;2023-03-24T01:23:41;98058.47;;;10.98
49154;BMP280;49455;52.252;9.124;2023-03-24T01:28:41;98052.41;;;10.96
49154;BMP280;49455;52.252;9.124;2023-03-24T01:33:42;98044.69;;;10.94
49154;BMP280;49455;52.252;9.124;2023-03-24T01:38:42;98051.53;;;10.94
49154;BMP280;49455;52.252;9.124;2023-03-24T01:43:43;98034.34;;;10.93
49154;BMP280;49455;52.252;9.124;2023-03-24T01:49:03;98030.91;;;10.95
49154;BMP280;49455;52.252;9.124;2023-03-24T01:59:26;98011.03;;;11.27
49154;BMP280;49455;52.252;9.124;2023-03-24T02:04:56;98004.16;;;11.24
49154;BMP280;49455;52.252;9.124;2023-03-24T02:10:04;97985.19;;;11.19
49154;BMP280;49455;52.252;9.124;2023-03-24T02:15:05;97978.31;;;11.14
49154;BMP280;49455;52.252;9.124;2023-03-24T02:26:03;97975.72;;;11.23
49154;BMP280;49455;52.252;9.124;2023-03-24T02:52:44;97936.00;;;11.37
49154;BMP280;49455;52.252;9.124;2023-03-24T02:57:51;97942.91;;;11.43
49154;BMP280;49455;52.252;9.124;2023-03-24T03:03:49;97928.28;;;11.43
49154;BMP280;49455;52.252;9.124;2023-03-24T03:08:50;97928.28;;;11.46
49154;BMP280;49455;52.252;9.124;2023-03-24T03:13:53;97909.31;;;11.48
49154;BMP280;49455;52.252;9.124;2023-03-24T03:18:57;97889.50;;;11.46
49154;BMP280;49455;52.252;9.124;2023-03-24T03:24:06;97879.09;;;11.56
49154;BMP280;49455;52.252;9.124;2023-03-24T03:29:15;97877.34;;;11.60
49154;BMP280;49455;52.252;9.124;2023-03-24T03:34:26;97858.34;;;11.65
49154;BMP280;49455;52.252;9.124;2023-03-24T03:39:31;97854.88;;;11.66
49154;BMP280;49455;52.252;9.124;2023-03-24T03:44:35;97842.78;;;11.73
49154;BMP280;49455;52.252;9.124;2023-03-24T03:49:36;97839.31;;;11.74
49154;BMP280;49455;52.252;9.124;2023-03-24T03:54:37;97837.59;;;11.76
49154;BMP280;49455;52.252;9.124;2023-03-24T03:59:39;97835.88;;;11.72
49154;BMP280;49455;52.252;9.124;2023-03-24T04:10:23;97837.66;;;11.64
49154;BMP280;49455;52.252;9.124;2023-03-24T04:15:34;97831.59;;;11.66
49154;BMP280;49455;52.252;9.124;2023-03-24T04:20:46;97815.19;;;11.72
49154;BMP280;49455;52.252;9.124;2023-03-24T04:25:48;97803.19;;;11.65
49154;BMP280;49455;52.252;9.124;2023-03-24T04:31:03;97786.78;;;11.64
49154;BMP280;49455;52.252;9.124;2023-03-24T04:36:21;97816.13;;;11.65
49154;BMP280;49455;52.252;9.124;2023-03-24T04:41:45;97786.78;;;11.67
49154;BMP280;49455;52.252;9.124;2023-03-24T04:46:56;97789.38;;;11.66
49154;BMP280;49455;52.252;9.124;2023-03-24T04:51:58;97799.72;;;11.66
49154;BMP280;49455;52.252;9.124;2023-03-24T04:57:01;97785.88;;;11.70
49154;BMP280;49455;52.252;9.124;2023-03-24T05:02:13;97761.78;;;11.65
49154;BMP280;49455;52.252;9.124;2023-03-24T05:07:18;97787.63;;;11.71
49154;BMP280;49455;52.252;9.124;2023-03-24T05:12:22;97772.94;;;11.71
49154;BMP280;49455;52.252;9.124;2023-03-24T05:17:41;97779.81;;;11.77
49154;BMP280;49455;52.252;9.124;2023-03-24T05:22:42;97765.97;;;11.82
49154;BMP280;49455;52.252;9.124;2023-03-24T05:27:43;97773.63;;;11.92
49154;BMP280;49455;52.252;9.124;2023-03-24T05:32:56;97782.19;;;12.00
49154;BMP280;49455;52.252;9.124;2023-03-24T05:37:57;97783.91;;;12.01
49154;BMP280;49455;52.252;9.124;2023-03-24T05:42:57;97794.22;;;12.06
49154;BMP280;49455;52.252;9.124;2023-03-24T05:48:01;97790.72;;;12.11
49154;BMP280;49455;52.252;9.124;2023-03-24T05:53:18;97790.63;;;12.20
49154;BMP280;49455;52.252;9.124;2023-03-24T05:58:42;97814.81;;;12.17
49154;BMP280;49455;52.252;9.124;2023-03-24T06:03:43;97837.25;;;12.17
49154;BMP280;49455;52.252;9.124;2023-03-24T06:08:47;97841.63;;;12.07
49154;BMP280;49455;52.252;9.124;2023-03-24T06:13:49;97849.53;;;11.91
49154;BMP280;49455;52.252;9.124;2023-03-24T06:18:49;97849.53;;;11.91
49154;BMP280;49455;52.252;9.124;2023-03-24T06:24:10;97866.88;;;11.83
49154;BMP280;49455;52.252;9.124;2023-03-24T06:29:11;97865.22;;;11.71
49154;BMP280;49455;52.252;9.124;2023-03-24T06:34:12;97852.41;;;11.48
49154;BMP280;49455;52.252;9.124;2023-03-24T06:39:13;97889.44;;;11.50
49154;BMP280;49455;52.252;9.124;2023-03-24T06:44:14;97898.91;;;11.56
49154;BMP280;49455;52.252;9.124;2023-03-24T06:49:16;97903.22;;;11.60
49154;BMP280;49455;52.252;9.124;2023-03-24T06:54:16;97931.63;;;11.64
49154;BMP280;49455;52.252;9.124;2023-03-24T06:59:17;97938.50;;;11.70
49154;BMP280;49455;52.252;9.124;2023-03-24T07:04:19;97949.75;;;11.67
49154;BMP280;49455;52.252;9.124;2023-03-24T07:09:28;97960.88;;;11.75
49154;BMP280;49455;52.252;9.124;2023-03-24T07:14:28;97958.28;;;11.84
49154;BMP280;49455;52.252;9.124;2023-03-24T07:19:30;97974.63;;;11.83
49154;BMP280;49455;52.252;9.124;2023-03-24T07:24:48;97996.22;;;11.86
49154;BMP280;49455;52.252;9.124;2023-03-24T07:30:09;98019.53;;;11.79
49154;BMP280;49455;52.252;9.124;2023-03-24T07:35:16;98046.31;;;11.65
49154;BMP280;49455;52.252;9.124;2023-03-24T07:40:16;98048.06;;;11.54
49154;BMP280;49455;52.252;9.124;2023-03-24T07:45:18;98065.25;;;11.76
49154;BMP280;49455;52.252;9.124;2023-03-24T07:50:19;98067.78;;;11.92
49154;BMP280;49455;52.252;9.124;2023-03-24T07:55:20;98062.50;;;12.12
49154;BMP280;49455;52.252;9.124;2023-03-24T08:00:40;98054.78;;;12.02
49154;BMP280;49455;52.252;9.124;2023-03-24T08:05:53;98058.22;;;12.04
49154;BMP280;49455;52.252;9.124;2023-03-24T08:11:05;98070.31;;;12.08
49154;BMP280;49455;52.252;9.124;2023-03-24T08:16:06;98065.94;;;12.13
49154;BMP280;49455;52.252;9.124;2023-03-24T08:21:06;98076.38;;;11.97
49154;BMP280;49455;52.252;9.124;2023-03-24T08:26:07;98088.53;;;11.64
49154;BMP280;49455;52.252;9.124;2023-03-24T08:31:07;98085.91;;;11.87
49154;BMP280;49455;52.252;9.124;2023-03-24T08:36:08;98080.63;;;12.14
49154;BMP280;49455;52.252;9.124;2023-03-24T08:41:08;98098.84;;;11.92
49154;BMP280;49455;52.252;9.124;2023-03-24T08:46:09;98108.25;;;12.06
49154;BMP280;49455;52.252;9.124;2023-03-24T08:51:14;98129.88;;;11.93
49154;BMP280;49455;52.252;9.124;2023-03-24T08:56:15;98133.28;;;12.08
49154;BMP280;49455;52.252;9.124;2023-03-24T09:01:16;98147.97;;;12.05
49154;BMP280;49455;52.252;9.124;2023-03-24T09:06:17;98159.09;;;12.23
49154;BMP280;49455;52.252;9.124;2023-03-24T09:11:20;98144.44;;;12.25
49154;BMP280;49455;52.252;9.124;2023-03-24T09:16:21;98148.72;;;12.32
49154;BMP280;49455;52.252;9.124;2023-03-24T09:21:21;98152.16;;;12.34
49154;BMP280;49455;52.252;9.124;2023-03-24T09:26:23;98153.81;;;12.45
49154;BMP280;49455;52.252;9.124;2023-03-24T09:31:23;98151.13;;;12.70
49154;BMP280;49455;52.252;9.124;2023-03-24T09:36:23;98148.69;;;12.38
49154;BMP280;49455;52.252;9.124;2023-03-24T09:41:29;98142.50;;;12.64
49154;BMP280;49455;52.252;9.124;2023-03-24T09:46:35;98138.00;;;12.99
49154;BMP280;49455;52.252;9.124;2023-03-24T09:51:41;98136.34;;;12.95
49154;BMP280;49455;52.252;9.124;2023-03-24T09:56:44;98132.06;;;12.85
49154;BMP280;49455;52.252;9.124;2023-03-24T10:01:46;98128.53;;;12.93
49154;BMP280;49455;52.252;9.124;2023-03-24T10:06:48;98126.81;;;12.94
49154;BMP280;49455;52.252;9.124;2023-03-24T10:12:16;98126.88;;;12.85
49154;BMP280;49455;52.252;9.124;2023-03-24T10:17:32;98144.13;;;12.90
49154;BMP280;49455;52.252;9.124;2023-03-24T10:27:58;98158.06;;;12.61
49154;BMP280;49455;52.252;9.124;2023-03-24T10:32:59;98167.53;;;12.69
49154;BMP280;49455;52.252;9.124;2023-03-24T10:38:03;98166.66;;;12.69
49154;BMP280;49455;52.252;9.124;2023-03-24T10:43:06;98170.84;;;13.01
49154;BMP280;49455;52.252;9.124;2023-03-24T10:48:07;98170.84;;;14.02
49154;BMP280;49455;52.252;9.124;2023-03-24T10:53:16;98173.28;;;14.86
49154;BMP280;49455;52.252;9.124;2023-03-24T11:03:28;98192.09;;;14.38
49154;BMP280;49455;52.252;9.124;2023-03-24T11:08:38;98193.47;;;13.88
49154;BMP280;49455;52.252;9.124;2023-03-24T11:13:39;98193.47;;;13.88
49154;BMP280;49455;52.252;9.124;2023-03-24T11:24:19;98185.59;;;14.03
49154;BMP280;49455;52.252;9.124;2023-03-24T11:29:22;98197.78;;;13.89
49154;BMP280;49455;52.252;9.124;2023-03-24T11:34:27;98196.25;;;13.69
49154;BMP280;49455;52.252;9.124;2023-03-24T11:39:30;98208.44;;;13.60
49154;BMP280;49455;52.252;9.124;2023-03-24T11:44:32;98195.34;;;13.74
49154;BMP280;49455;52.252;9.124;2023-03-24T11:49:52;98196.88;;;13.93
49154;BMP280;49455;52.252;9.124;2023-03-24T11:54:54;98186.34;;;14.11
49154;BMP280;49455;52.252;9.124;2023-03-24T12:00:04;98194.72;;;14.36
49154;BMP280;49455;52.252;9.124;2023-03-24T12:05:30;98195.81;;;14.87
49154;BMP280;49455;52.252;9.124;2023-03-24T12:10:49;98195.44;;;14.49
49154;BMP280;49455;52.252;9.124;2023-03-24T12:26:29;98179.94;;;15.10
49154;BMP280;49455;52.252;9.124;2023-03-24T12:42:40;98187.09;;;14.24
49154;BMP280;49455;52.252;9.124;2023-03-24T12:58:10;98163.25;;;14.60
49154;BMP280;49455;52.252;9.124;2023-03-24T13:03:17;98162.38;;;14.61
49154;BMP280;49455;52.252;9.124;2023-03-24T13:08:24;98185.34;;;14.23
49154;BMP280;49455;52.252;9.124;2023-03-24T13:13:36;98178.47;;;14.86
49154;BMP280;49455;52.252;9.124;2023-03-24T13:18:43;98181.84;;;14.94
49154;BMP280;49455;52.252;9.124;2023-03-24T13:34:25;98173.19;;;14.25
49154;BMP280;49455;52.252;9.124;2023-03-24T13:39:27;98178.31;;;14.31
49154;BMP280;49455;52.252;9.124;2023-03-24T13:44:40;98177.03;;;14.68
49154;BMP280;49455;52.252;9.124;2023-03-24T13:49:49;98168.28;;;14.72
49154;BMP280;49455;52.252;9.124;2023-03-24T13:54:55;98162.09;;;14.82
49154;BMP280;49455;52.252;9.124;2023-03-24T14:00:14;98174.72;;;15.11
49154;BMP280;49455;52.252;9.124;2023-03-24T14:20:35;98209.78;;;12.91
49154;BMP280;49455;52.252;9.124;2023-03-24T14:25:37;98201.31;;;12.47
49154;BMP280;49455;52.252;9.124;2023-03-24T14:36:03;98210.03;;;13.77
49154;BMP280;49455;52.252;9.124;2023-03-24T14:41:15;98211.19;;;13.42
49154;BMP280;49455;52.252;9.124;2023-03-24T14:56:38;98205.97;;;13.45
49154;BMP280;49455;52.252;9.124;2023-03-24T15:01:40;98197.41;;;13.31
49154;BMP280;49455;52.252;9.124;2023-03-24T15:06:44;98187.09;;;14.24
49154;BMP280;49455;52.252;9.124;2023-03-24T15:11:46;98174.47;;;14.62
49154;BMP280;49455;52.252;9.124;2023-03-24T15:16:53;98175.06;;;14.84
49154;BMP280;49455;52.252;9.124;2023-03-24T15:22:03;98182.69;;;14.26
49154;BMP280;49455;52.252;9.124;2023-03-24T15:32:05;98166.06;;;13.60
49154;BMP280;49455;52.252;9.124;2023-03-24T15:37:19;98161.72;;;13.61
49154;BMP280;49455;52.252;9.124;2023-03-24T15:42:21;98160.22;;;13.32
49154;BMP280;49455;52.252;9.124;2023-03-24T15:47:29;98174.53;;;12.45
49154;BMP280;49455;52.252;9.124;2023-03-24T15:52:34;98225.63;;;11.98
49154;BMP280;49455;52.252;9.124;2023-03-24T15:57:41;98327.91;;;10.72
49154;BMP280;49455;52.252;9.124;2023-03-24T16:02:49;98297.03;;;9.63
49154;BMP280;49455;52.252;9.124;2023-03-24T16:12:54;98270.63;;;9.91
49154;BMP280;49455;52.252;9.124;2023-03-24T16:17:54;98269.00;;;10.03
49154;BMP280;49455;52.252;9.124;2023-03-24T16:22:55;98270.09;;;10.39
49154;BMP280;49455;52.252;9.124;2023-03-24T16:27:55;98250.34;;;10.47
49154;BMP280;49455;52.252;9.124;2023-03-24T16:32:56;98252.09;;;10.55
49154;BMP280;49455;52.252;9.124;2023-03-24T16:37:56;98239.22;;;10.65
49154;BMP280;49455;52.252;9.124;2023-03-24T16:42:56;98242.69;;;10.70
49154;BMP280;49455;52.252;9.124;2023-03-24T16:47:58;98235.88;;;10.90
49154;BMP280;49455;52.252;9.124;2023-03-24T16:52:59;98254.66;;;10.55
49154;BMP280;49455;52.252;9.124;2023-03-24T16:57:59;98249.44;;;10.39
49154;BMP280;49455;52.252;9.124;2023-03-24T17:02:59;98247.59;;;10.20
49154;BMP280;49455;52.252;9.124;2023-03-24T17:08:00;98265.63;;;10.14
49154;BMP280;49455;52.252;9.124;2023-03-24T17:13:00;98269.81;;;9.95
49154;BMP280;49455;52.252;9.124;2023-03-24T17:18:01;98281.81;;;9.90
49154;BMP280;49455;52.252;9.124;2023-03-24T17:23:01;98282.66;;;9.89
49154;BMP280;49455;52.252;9.124;2023-03-24T17:28:02;98275.84;;;9.98
49154;BMP280;49455;52.252;9.124;2023-03-24T17:33:02;98258.66;;;9.97
49154;BMP280;49455;52.252;9.124;2023-03-24T17:38:03;98258.63;;;9.96
49154;BMP280;49455;52.252;9.124;2023-03-24T17:43:03;98262.03;;;9.90
49154;BMP280;49455;52.252;9.124;2023-03-24T17:48:04;98269.69;;;9.81
49154;BMP280;49455;52.252;9.124;2023-03-24T17:53:04;98266.25;;;9.81
49154;BMP280;49455;52.252;9.124;2023-03-24T17:58:05;98261.06;;;9.79
49154;BMP280;49455;52.252;9.124;2023-03-24T18:03:05;98261.09;;;9.84
49154;BMP280;49455;52.252;9.124;2023-03-24T18:08:05;98269.66;;;9.83
49154;BMP280;49455;52.252;9.124;2023-03-24T18:13:06;98283.38;;;9.77
49154;BMP280;49455;52.252;9.124;2023-03-24T18:18:06;98283.38;;;9.76
49154;BMP280;49455;52.252;9.124;2023-03-24T18:23:07;98281.66;;;9.76
49154;BMP280;49455;52.252;9.124;2023-03-24T18:28:07;98288.53;;;9.73
49154;BMP280;49455;52.252;9.124;2023-03-24T18:33:08;98291.06;;;9.71
49154;BMP280;49455;52.252;9.124;2023-03-24T18:38:08;98283.25;;;9.61
49154;BMP280;49455;52.252;9.124;2023-03-24T18:43:08;98281.56;;;9.63
49154;BMP280;49455;52.252;9.124;2023-03-24T18:48:09;98291.84;;;9.60
49154;BMP280;49455;52.252;9.124;2023-03-24T18:53:09;98296.94;;;9.54
49154;BMP280;49455;52.252;9.124;2023-03-24T18:58:10;98291.78;;;9.54
49154;BMP280;49455;52.252;9.124;2023-03-24T19:03:10;98288.22;;;9.42
49154;BMP280;49455;52.252;9.124;2023-03-24T19:08:11;98292.53;;;9.44
49154;BMP280;49455;52.252;9.124;2023-03-24T19:13:12;98281.31;;;9.35
49154;BMP280;49455;52.252;9.124;2023-03-24T19:18:13;98282.25;;;9.43
49154;BMP280;49455;52.252;9.124;2023-03-24T19:23:14;98285.63;;;9.39
49154;BMP280;49455;52.252;9.124;2023-03-24T19:28:14;98285.69;;;9.43
49154;BMP280;49455;52.252;9.124;2023-03-24T19:33:15;98280.59;;;9.51
49154;BMP280;49455;52.252;9.124;2023-03-24T19:38:16;98269.38;;;9.47
49154;BMP280;49455;52.252;9.124;2023-03-24T19:43:17;98267.72;;;9.52
49154;BMP280;49455;52.252;9.124;2023-03-24T19:48:18;98266.81;;;9.46
49154;BMP280;49455;52.252;9.124;2023-03-24T19:53:19;98284.00;;;9.48
49154;BMP280;49455;52.252;9.124;2023-03-24T19:58:20;98278.69;;;9.32
49154;BMP280;49455;52.252;9.124;2023-03-24T20:03:21;98283.00;;;9.32
49154;BMP280;49455;52.252;9.124;2023-03-24T20:08:21;98271.88;;;9.37
49154;BMP280;49455;52.252;9.124;2023-03-24T20:13:22;98263.25;;;9.35
49154;BMP280;49455;52.252;9.124;2023-03-24T20:18:22;98267.47;;;9.27
49154;BMP280;49455;52.252;9.124;2023-03-24T20:23:22;98261.41;;;9.22
49154;BMP280;49455;52.252;9.124;2023-03-24T20:28:23;98265.66;;;9.16
49154;BMP280;49455;52.252;9.124;2023-03-24T20:33:23;98244.25;;;9.24
49154;BMP280;49455;52.252;9.124;2023-03-24T20:38:24;98245.03;;;9.16
49154;BMP280;49455;52.252;9.124;2023-03-24T20:43:25;98249.34;;;9.20
49154;BMP280;49455;52.252;9.124;2023-03-24T20:48:26;98254.50;;;9.20
49154;BMP280;49455;52.252;9.124;2023-03-24T20:53:27;98255.31;;;9.14
49154;BMP280;49455;52.252;9.124;2023-03-24T20:58:27;98261.44;;;9.24
49154;BMP280;49455;52.252;9.124;2023-03-24T21:03:27;98255.38;;;9.19
49154;BMP280;49455;52.252;9.124;2023-03-24T21:08:28;98251.16;;;9.28
49154;BMP280;49455;52.252;9.124;2023-03-24T21:13:28;98242.50;;;9.23
49154;BMP280;49455;52.252;9.124;2023-03-24T21:18:29;98224.50;;;9.25
49154;BMP280;49455;52.252;9.124;2023-03-24T21:23:31;98218.50;;;9.26
49154;BMP280;49455;52.252;9.124;2023-03-24T21:28:32;98223.66;;;9.26
49154;BMP280;49455;52.252;9.124;2023-03-24T21:33:33;98213.31;;;9.23
49154;BMP280;49455;52.252;9.124;2023-03-24T21:38:33;98208.19;;;9.24
49154;BMP280;49455;52.252;9.124;2023-03-24T21:43:35;98198.75;;;9.25
49154;BMP280;49455;52.252;9.124;2023-03-24T21:48:36;98210.72;;;9.23
49154;BMP280;49455;52.252;9.124;2023-03-24T21:53:36;98202.22;;;9.30
49154;BMP280;49455;52.252;9.124;2023-03-24T21:58:36;98201.41;;;9.35
49154;BMP280;49455;52.252;9.124;2023-03-24T22:03:37;98202.34;;;9.47
49154;BMP280;49455;52.252;9.124;2023-03-24T22:08:38;98192.16;;;9.59
49154;BMP280;49455;52.252;9.124;2023-03-24T22:13:38;98198.13;;;9.54
49154;BMP280;49455;52.252;9.124;2023-03-24T22:18:38;98196.44;;;9.60
49154;BMP280;49455;52.252;9.124;2023-03-24T22:23:39;98193.88;;;9.63
49154;BMP280;49455;52.252;9.124;2023-03-24T22:28:40;98188.75;;;9.69
49154;BMP280;49455;52.252;9.124;2023-03-24T22:33:41;98183.59;;;9.66
49154;BMP280;49455;52.252;9.124;2023-03-24T22:38:42;98177.63;;;9.70
49154;BMP280;49455;52.252;9.124;2023-03-24T22:43:42;98182.78;;;9.71
49154;BMP280;49455;52.252;9.124;2023-03-24T22:48:43;98187.94;;;9.73
49154;BMP280;49455;52.252;9.124;2023-03-24T22:53:47;98186.16;;;9.62
49154;BMP280;49455;52.252;9.124;2023-03-24T22:58:48;98187.88;;;9.63
49154;BMP280;49455;52.252;9.124;2023-03-24T23:03:49;98181.88;;;9.65
49154;BMP280;49455;52.252;9.124;2023-03-24T23:08:49;98187.84;;;9.61
49154;BMP280;49455;52.252;9.124;2023-03-24T23:13:50;98174.13;;;9.65
49154;BMP280;49455;52.252;9.124;2023-03-24T23:18:50;98183.50;;;9.51
49154;BMP280;49455;52.252;9.124;2023-03-24T23:23:51;98180.91;;;9.51
49154;BMP280;49455;52.252;9.124;2023-03-24T23:28:51;98175.81;;;9.57
49154;BMP280;49455;52.252;9.124;2023-03-24T23:33:54;98178.31;;;9.48
49154;BMP280;49455;52.252;9.124;2023-03-24T23:38:55;98181.75;;;9.50
49154;BMP280;49455;52.252;9.124;2023-03-24T23:43:55;98170.59;;;9.50
49154;BMP280;49455;52.252;9.124;2023-03-24T23:48:55;98178.31;;;9.50
49154;BMP280;49455;52.252;9.124;2023-03-24T23:53:56;98186.88;;;9.44
49154;BMP280;49455;52.252;9.124;2023-03-24T23:58:56;98179.94;;;9.35
